Time;durP1;ratioP1;P1;durP2;ratioP2;P2;SDS_P1;SDS_P2;PMS_P1;PMS_P2;Temp;Humidity;BMP_temperature;BMP_pressure;BME280_temperature;BME280_humidity;BME280_pressure;Samples;Min_cycle;Max_cycle;Signal;HPM_P1;HPM_P2
2021/03/16 00:01:55;;;;;;;42.97;4.38;;;5.60;99.90;;;;;;5037453;28;20048;-87
2021/03/16 00:04:21;;;;;;;30.70;4.30;;;5.60;99.90;;;;;;5047000;28;20055;-87
2021/03/16 00:06:46;;;;;;;47.92;5.10;;;5.50;99.90;;;;;;5060084;28;20136;-87
2021/03/16 00:09:12;;;;;;;44.50;4.93;;;5.50;99.90;;;;;;5056651;28;20046;-87
2021/03/16 00:11:39;;;;;;;38.67;3.90;;;5.50;99.90;;;;;;5014826;28;20136;-87
2021/03/16 00:14:04;;;;;;;32.88;4.20;;;5.50;99.90;;;;;;5028867;28;20144;-86
2021/03/16 00:16:30;;;;;;;34.25;4.50;;;5.50;99.90;;;;;;5045613;28;20041;-87
2021/03/16 00:18:56;;;;;;;28.60;3.25;;;5.50;99.90;;;;;;5030399;28;20132;-86
2021/03/16 00:21:22;;;;;;;19.77;2.90;;;5.50;99.90;;;;;;5018966;28;20037;-87
2021/03/16 00:23:48;;;;;;;30.65;3.50;;;5.50;99.90;;;;;;5028712;28;20560;-87
2021/03/16 00:26:14;;;;;;;39.83;4.28;;;5.50;99.90;;;;;;5041533;28;20041;-86
2021/03/16 00:28:40;;;;;;;36.30;4.18;;;5.50;99.90;;;;;;5026196;28;20053;-87
2021/03/16 00:31:06;;;;;;;36.85;3.90;;;5.50;99.90;;;;;;5045478;28;20042;-87
2021/03/16 00:33:32;;;;;;;40.92;3.22;;;5.50;99.90;;;;;;5028947;28;20073;-88
2021/03/16 00:35:58;;;;;;;33.25;3.33;;;5.50;99.90;;;;;;5028910;28;20128;-87
2021/03/16 00:38:24;;;;;;;38.90;3.95;;;5.60;99.90;;;;;;5045580;28;20404;-87
2021/03/16 00:40:50;;;;;;;25.05;3.03;;;5.60;99.90;;;;;;5008528;28;20486;-87
2021/03/16 00:43:17;;;;;;;26.02;3.80;;;5.60;99.90;;;;;;5012017;28;20073;-86
2021/03/16 00:45:43;;;;;;;21.35;3.25;;;5.60;99.90;;;;;;5028401;28;20489;-87
2021/03/16 00:48:18;;;;;;;25.80;3.20;;;5.60;99.90;;;;;;5046881;28;20061;-87
2021/03/16 00:50:45;;;;;;;40.42;5.75;;;5.60;99.90;;;;;;5038730;28;20044;-87
2021/03/16 00:53:11;;;;;;;32.10;4.72;;;5.60;99.90;;;;;;5029960;28;20033;-87
2021/03/16 00:55:37;;;;;;;26.17;3.40;;;5.60;99.90;;;;;;5029626;28;20045;-88
2021/03/16 00:58:04;;;;;;;34.20;3.67;;;5.60;99.90;;;;;;5028947;28;20042;-87
2021/03/16 01:00:30;;;;;;;26.75;3.08;;;5.70;99.90;;;;;;5010506;28;20425;-87
2021/03/16 01:02:56;;;;;;;32.03;3.35;;;5.70;99.90;;;;;;5026936;28;20047;-86
2021/03/16 01:05:22;;;;;;;28.00;3.78;;;5.70;99.90;;;;;;5040148;28;20517;-86
2021/03/16 01:07:48;;;;;;;30.17;3.88;;;5.70;99.90;;;;;;5055530;28;20044;-87
2021/03/16 01:10:16;;;;;;;12.63;1.95;;;5.80;99.90;;;;;;5055161;28;20493;-87
2021/03/16 01:12:43;;;;;;;20.23;3.10;;;5.70;99.90;;;;;;5041373;28;20401;-87
2021/03/16 01:15:10;;;;;;;22.90;3.92;;;5.70;99.90;;;;;;5008934;28;20116;-87
2021/03/16 01:17:36;;;;;;;30.35;3.67;;;5.70;99.90;;;;;;5011254;28;20045;-87
2021/03/16 01:20:09;;;;;;;35.25;3.72;;;5.70;99.90;;;;;;5017468;28;20041;-87
2021/03/16 01:22:35;;;;;;;30.48;3.40;;;5.70;99.90;;;;;;5049339;28;20389;-87
2021/03/16 01:25:01;;;;;;;27.88;3.53;;;5.60;99.90;;;;;;5054148;28;20041;-88
2021/03/16 01:27:27;;;;;;;30.85;4.40;;;5.60;99.90;;;;;;5045022;28;20151;-88
2021/03/16 01:29:52;;;;;;;47.22;3.90;;;5.50;99.90;;;;;;5027301;28;20060;-87
2021/03/16 01:32:22;;;;;;;23.48;2.50;;;5.60;99.90;;;;;;5028458;28;20041;-86
2021/03/16 01:34:48;;;;;;;24.75;3.42;;;5.60;99.90;;;;;;5043706;28;20055;-87
2021/03/16 01:37:13;;;;;;;32.78;3.90;;;5.60;99.90;;;;;;5018948;28;20049;-87
2021/03/16 01:39:39;;;;;;;27.88;3.65;;;5.60;99.90;;;;;;5034166;28;20401;-88
2021/03/16 01:42:05;;;;;;;19.00;3.70;;;5.60;99.90;;;;;;5044350;28;20049;-88
2021/03/16 01:44:31;;;;;;;26.98;4.30;;;5.60;99.90;;;;;;5028111;28;20493;-87
2021/03/16 01:46:59;;;;;;;24.40;3.42;;;5.70;99.90;;;;;;5026554;28;20111;-88
2021/03/16 01:49:25;;;;;;;22.70;3.63;;;5.70;99.90;;;;;;5028085;28;20064;-89
2021/03/16 01:51:51;;;;;;;27.38;3.60;;;5.70;99.90;;;;;;5027141;28;20045;-87
2021/03/16 01:54:17;;;;;;;28.92;3.60;;;5.70;99.90;;;;;;5028250;28;20454;-87
2021/03/16 01:56:45;;;;;;;30.27;2.95;;;5.70;99.90;;;;;;5043754;28;20124;-88
2021/03/16 01:59:18;;;;;;;33.25;5.18;;;5.60;99.90;;;;;;5007903;28;20053;-87
2021/03/16 02:01:44;;;;;;;23.55;3.05;;;5.70;99.90;;;;;;5033477;28;20652;-87
2021/03/16 02:04:12;;;;;;;21.52;2.70;;;5.70;99.90;;;;;;5033894;28;20069;-87
2021/03/16 02:06:49;;;;;;;20.63;3.28;;;5.70;99.90;;;;;;5050931;28;20060;-87
2021/03/16 02:09:37;;;;;;;30.25;2.65;;;5.60;99.90;;;;;;5034127;28;20037;-87
2021/03/16 02:12:15;;;;;;;25.45;2.95;;;5.70;99.90;;;;;;5063542;28;20120;-88
2021/03/16 02:14:53;;;;;;;23.60;2.95;;;5.70;99.90;;;;;;5028206;28;20130;-87
2021/03/16 02:17:38;;;;;;;29.27;4.15;;;5.70;99.90;;;;;;5034431;28;20120;-87
2021/03/16 02:20:19;;;;;;;19.35;2.20;;;5.70;99.90;;;;;;5033456;28;20111;-87
2021/03/16 02:22:46;;;;;;;22.73;2.70;;;5.70;99.90;;;;;;5033522;28;20595;-89
2021/03/16 02:25:28;;;;;;;22.63;2.90;;;5.70;99.90;;;;;;5033914;28;20045;-87
2021/03/16 02:28:02;;;;;;;30.75;3.85;;;5.80;99.90;;;;;;5013229;28;20417;-88
2021/03/16 02:30:30;;;;;;;32.80;3.67;;;5.80;99.90;;;;;;5041645;28;20050;-88
2021/03/16 02:32:57;;;;;;;22.35;2.88;;;5.80;99.90;;;;;;5033398;28;20060;-87
2021/03/16 02:35:24;;;;;;;27.88;4.40;;;5.70;99.90;;;;;;5033999;28;20482;-87
2021/03/16 02:37:53;;;;;;;24.48;2.60;;;5.70;99.90;;;;;;5049592;28;20072;-86
2021/03/16 02:40:21;;;;;;;23.45;2.63;;;5.70;99.90;;;;;;5034275;28;20056;-87
2021/03/16 02:42:46;;;;;;;24.30;2.88;;;5.70;99.90;;;;;;5013891;28;20406;-87
2021/03/16 02:45:13;;;;;;;29.65;3.53;;;5.70;99.90;;;;;;5034041;28;20049;-87
2021/03/16 02:47:44;;;;;;;29.15;2.97;;;5.70;99.90;;;;;;5034131;28;20537;-87
2021/03/16 02:50:12;;;;;;;22.80;2.35;;;5.80;99.90;;;;;;5034707;28;20048;-87
2021/03/16 02:52:38;;;;;;;21.48;2.28;;;5.80;99.90;;;;;;5034071;28;20049;-87
2021/03/16 02:55:05;;;;;;;10.02;1.92;;;5.70;99.90;;;;;;5049835;28;20038;-87
2021/03/16 02:57:34;;;;;;;18.42;1.90;;;5.80;99.90;;;;;;5033984;28;20069;-87
2021/03/16 03:00:03;;;;;;;15.38;1.70;;;5.80;99.90;;;;;;5016362;28;20102;-87
2021/03/16 03:02:34;;;;;;;37.10;3.08;;;5.80;99.90;;;;;;5035453;28;20037;-87
2021/03/16 03:05:01;;;;;;;25.60;4.15;;;5.80;99.90;;;;;;5034117;28;20056;-86
2021/03/16 03:07:28;;;;;;;33.95;5.20;;;5.80;99.90;;;;;;5033821;28;20037;-87
2021/03/16 03:09:54;;;;;;;34.25;2.83;;;5.80;99.90;;;;;;5013374;28;20058;-88
2021/03/16 03:12:20;;;;;;;37.47;4.38;;;5.80;99.90;;;;;;5031371;28;20041;-87
2021/03/16 03:14:46;;;;;;;27.52;2.90;;;5.70;99.90;;;;;;5030090;28;20041;-88
2021/03/16 03:17:12;;;;;;;18.45;2.38;;;5.70;99.90;;;;;;5030281;28;20045;-87
2021/03/16 03:19:38;;;;;;;17.00;2.70;;;5.70;99.90;;;;;;5046871;28;20452;-87
2021/03/16 03:22:22;;;;;;;22.48;3.22;;;5.70;99.90;;;;;;5030000;28;20452;-87
2021/03/16 03:25:04;;;;;;;35.15;3.67;;;5.70;99.90;;;;;;5032946;28;20053;-88
2021/03/16 03:27:38;;;;;;;32.63;4.38;;;5.70;99.90;;;;;;5030241;28;20049;-87
2021/03/16 03:30:06;;;;;;;46.92;4.38;;;5.70;99.90;;;;;;5046240;28;20053;-88
2021/03/16 03:32:34;;;;;;;22.63;3.58;;;5.70;99.90;;;;;;5030616;28;20053;-87
2021/03/16 03:35:01;;;;;;;43.40;4.13;;;5.60;99.90;;;;;;5029471;28;20041;-87
2021/03/16 03:37:30;;;;;;;44.13;3.88;;;5.60;99.90;;;;;;5046918;28;20481;-87
2021/03/16 03:39:58;;;;;;;39.20;4.03;;;5.60;99.90;;;;;;5045690;28;20048;-87
2021/03/16 03:42:25;;;;;;;37.83;3.80;;;5.60;99.90;;;;;;5030055;28;20098;-87
2021/03/16 03:44:53;;;;;;;35.90;3.60;;;5.60;99.90;;;;;;5046212;28;20041;-86
2021/03/16 03:47:19;;;;;;;39.88;4.05;;;5.60;99.90;;;;;;5030362;28;20175;-88
2021/03/16 03:49:46;;;;;;;33.08;3.95;;;5.60;99.90;;;;;;5011868;28;20053;-88
2021/03/16 03:52:14;;;;;;;19.83;2.67;;;5.60;99.90;;;;;;5029944;28;20037;-88
2021/03/16 03:54:42;;;;;;;37.28;3.58;;;5.50;99.90;;;;;;5031270;28;20033;-88
2021/03/16 03:57:12;;;;;;;33.47;4.10;;;5.60;99.90;;;;;;5045771;28;20042;-88
2021/03/16 03:59:44;;;;;;;25.13;3.03;;;5.60;99.90;;;;;;5046264;28;20132;-88
2021/03/16 04:02:10;;;;;;;28.67;3.15;;;5.60;99.90;;;;;;5022452;28;20060;-87
2021/03/16 04:04:38;;;;;;;26.60;3.05;;;5.60;99.90;;;;;;5045878;28;20083;-87
2021/03/16 04:07:06;;;;;;;39.28;5.15;;;5.60;99.90;;;;;;5030087;28;20075;-88
2021/03/16 04:09:32;;;;;;;36.17;3.25;;;5.60;99.90;;;;;;5029916;28;20133;-88
2021/03/16 04:11:59;;;;;;;35.60;3.20;;;5.60;99.90;;;;;;5009355;28;20148;-88
2021/03/16 04:14:27;;;;;;;29.08;2.83;;;5.70;99.90;;;;;;5029413;28;20168;-89
2021/03/16 04:16:55;;;;;;;37.15;3.17;;;5.60;99.90;;;;;;5030864;28;20136;-89
2021/03/16 04:19:21;;;;;;;15.15;2.78;;;5.60;99.90;;;;;;5029530;28;20036;-89
2021/03/16 04:21:48;;;;;;;29.95;3.13;;;5.60;99.90;;;;;;5029346;28;20049;-89
2021/03/16 04:24:14;;;;;;;22.67;2.58;;;5.60;99.90;;;;;;5025897;28;20038;-89
2021/03/16 04:26:40;;;;;;;28.73;1.90;;;5.60;99.90;;;;;;5017235;28;20369;-89
2021/03/16 04:29:06;;;;;;;20.80;2.75;;;5.50;99.90;;;;;;5028490;28;20083;-88
2021/03/16 04:31:32;;;;;;;26.30;3.42;;;5.60;99.90;;;;;;5009345;28;20050;-87
2021/03/16 04:33:57;;;;;;;26.27;2.90;;;5.50;99.90;;;;;;5002408;28;20066;-89
2021/03/16 04:36:23;;;;;;;15.95;1.67;;;5.50;99.90;;;;;;5029184;28;20119;-88
2021/03/16 04:38:49;;;;;;;16.42;2.42;;;5.50;99.90;;;;;;5029062;28;20484;-88
2021/03/16 04:41:15;;;;;;;16.58;2.50;;;5.50;99.90;;;;;;5044775;28;20634;-87
2021/03/16 04:43:42;;;;;;;18.88;1.63;;;5.50;99.90;;;;;;5045632;28;20041;-88
2021/03/16 04:46:12;;;;;;;17.65;2.72;;;5.50;99.90;;;;;;5008361;28;20065;-87
2021/03/16 04:48:38;;;;;;;30.58;3.25;;;5.50;99.90;;;;;;5015483;28;20095;-88
2021/03/16 04:51:05;;;;;;;16.08;2.15;;;5.50;99.90;;;;;;5027777;28;20045;-87
2021/03/16 04:53:31;;;;;;;16.27;3.10;;;5.50;99.90;;;;;;5028794;28;20042;-87
2021/03/16 04:55:57;;;;;;;17.67;2.45;;;5.50;99.90;;;;;;5028319;28;20690;-87
2021/03/16 04:58:23;;;;;;;19.83;2.53;;;5.50;99.90;;;;;;5028442;28;20045;-87
2021/03/16 05:00:48;;;;;;;20.02;1.90;;;5.50;99.90;;;;;;5028319;28;20091;-88
2021/03/16 05:03:15;;;;;;;15.95;2.22;;;5.50;99.90;;;;;;5027879;28;20099;-87
2021/03/16 05:05:41;;;;;;;22.05;3.50;;;5.50;99.90;;;;;;5044959;28;20045;-88
2021/03/16 05:08:06;;;;;;;16.83;2.95;;;5.60;99.90;;;;;;5027877;28;20052;-87
2021/03/16 05:10:32;;;;;;;21.02;2.75;;;5.50;99.90;;;;;;5014266;28;20482;-87
2021/03/16 05:12:58;;;;;;;22.25;2.40;;;5.50;99.90;;;;;;5028035;28;20049;-87
2021/03/16 05:15:24;;;;;;;29.17;3.00;;;5.50;99.90;;;;;;5028184;28;20045;-88
2021/03/16 05:17:50;;;;;;;26.05;2.70;;;5.50;99.90;;;;;;5028346;28;20037;-88
2021/03/16 05:20:16;;;;;;;20.33;2.13;;;5.50;99.90;;;;;;5037656;28;20181;-88
2021/03/16 05:22:42;;;;;;;25.58;2.78;;;5.50;99.90;;;;;;5062207;28;20139;-88
2021/03/16 05:25:09;;;;;;;26.73;3.08;;;5.50;99.90;;;;;;5027964;28;20533;-88
2021/03/16 05:27:35;;;;;;;23.45;3.17;;;5.50;99.90;;;;;;5028278;28;20048;-88
2021/03/16 05:30:01;;;;;;;19.27;2.85;;;5.50;99.90;;;;;;5044312;28;20460;-90
2021/03/16 05:32:26;;;;;;;25.17;3.65;;;5.50;99.90;;;;;;5027768;28;20095;-88
2021/03/16 05:34:52;;;;;;;17.45;2.83;;;5.50;99.90;;;;;;5024692;28;20122;-87
2021/03/16 05:37:18;;;;;;;19.35;2.17;;;5.50;99.90;;;;;;5044181;28;20056;-87
2021/03/16 05:39:44;;;;;;;17.95;1.88;;;5.50;99.90;;;;;;5028059;28;20050;-88
2021/03/16 05:42:10;;;;;;;16.85;2.28;;;5.40;99.90;;;;;;5043549;28;20037;-88
2021/03/16 05:44:37;;;;;;;10.80;1.65;;;5.40;99.90;;;;;;5028025;28;20041;-87
2021/03/16 05:47:04;;;;;;;10.80;1.52;;;5.50;99.90;;;;;;5008090;28;20077;-88
2021/03/16 05:49:32;;;;;;;13.98;2.60;;;5.50;99.90;;;;;;5021678;28;20438;-87
2021/03/16 05:52:04;;;;;;;23.50;2.00;;;5.50;99.90;;;;;;5027391;28;20387;-88
2021/03/16 05:54:30;;;;;;;20.88;2.10;;;5.50;99.90;;;;;;5044366;28;20049;-88
2021/03/16 05:56:57;;;;;;;23.75;2.35;;;5.50;99.90;;;;;;5029254;28;20103;-88
2021/03/16 05:59:24;;;;;;;19.80;2.85;;;5.70;99.90;;;;;;5043534;28;20045;-88
2021/03/16 06:01:50;;;;;;;24.73;3.42;;;5.50;99.90;;;;;;5027753;28;20077;-88
2021/03/16 06:04:18;;;;;;;29.02;2.40;;;5.40;99.90;;;;;;5027183;28;20132;-88
2021/03/16 06:06:44;;;;;;;31.95;3.03;;;5.40;99.90;;;;;;5027500;28;20145;-88
2021/03/16 06:09:10;;;;;;;21.55;3.15;;;5.40;99.90;;;;;;5023434;28;20394;-88
2021/03/16 06:11:45;;;;;;;30.20;2.50;;;5.40;99.90;;;;;;5013953;28;20041;-88
2021/03/16 06:14:11;;;;;;;12.13;1.52;;;5.40;99.90;;;;;;5023844;28;20048;-88
2021/03/16 06:16:38;;;;;;;20.17;2.70;;;5.40;99.90;;;;;;5027969;28;20049;-88
2021/03/16 06:19:04;;;;;;;27.95;4.28;;;5.40;99.90;;;;;;5027304;28;20084;-88
2021/03/16 06:21:30;;;;;;;36.15;3.92;;;5.40;99.90;;;;;;5027424;28;20049;-88
2021/03/16 06:23:58;;;;;;;18.73;2.78;;;5.40;99.90;;;;;;5044214;28;20128;-88
2021/03/16 06:26:26;;;;;;;8.52;1.65;;;5.30;99.90;;;;;;5007157;28;20622;-88
2021/03/16 06:29:05;;;;;;;29.38;2.70;;;5.40;99.90;;;;;;5019832;28;20485;-88
2021/03/16 06:31:31;;;;;;;23.55;2.47;;;5.20;99.90;;;;;;5026923;28;20478;-88
2021/03/16 06:33:57;;;;;;;24.00;2.05;;;5.20;99.90;;;;;;5008113;28;20066;-88
2021/03/16 06:36:30;;;;;;;21.80;2.92;;;5.20;99.90;;;;;;5010215;28;20048;-88
2021/03/16 06:38:57;;;;;;;22.65;3.03;;;5.30;99.90;;;;;;5027790;28;20056;-88
2021/03/16 06:41:24;;;;;;;21.20;3.90;;;5.40;99.90;;;;;;5009027;28;20500;-87
2021/03/16 06:44:00;;;;;;;28.42;4.15;;;5.50;99.90;;;;;;5027383;28;20048;-88
2021/03/16 06:46:33;;;;;;;30.42;3.67;;;5.40;99.90;;;;;;5033496;28;20041;-88
2021/03/16 06:49:00;;;;;;;43.38;4.90;;;5.40;99.90;;;;;;5031368;28;20049;-88
2021/03/16 06:51:28;;;;;;;31.42;3.08;;;5.40;99.90;;;;;;5030405;28;20029;-88
2021/03/16 06:54:05;;;;;;;17.27;2.40;;;5.50;99.90;;;;;;5011312;28;20512;-88
2021/03/16 06:56:31;;;;;;;30.30;4.07;;;5.40;99.90;;;;;;5015850;28;20084;-89
2021/03/16 06:58:57;;;;;;;38.35;4.10;;;5.50;99.90;;;;;;5031003;28;20454;-88
2021/03/16 07:01:24;;;;;;;21.15;2.08;;;5.50;99.90;;;;;;5030036;28;20559;-87
2021/03/16 07:03:50;;;;;;;32.85;4.05;;;5.50;99.90;;;;;;5030438;28;20072;-87
2021/03/16 07:06:20;;;;;;;14.73;2.13;;;5.50;99.90;;;;;;5029735;28;20053;-87
2021/03/16 07:08:48;;;;;;;24.77;2.22;;;5.50;99.90;;;;;;5060969;28;20049;-88
2021/03/16 07:11:20;;;;;;;32.72;3.40;;;5.60;99.90;;;;;;5043466;28;20129;-88
2021/03/16 07:13:46;;;;;;;16.58;2.30;;;5.60;99.90;;;;;;5045877;28;20076;-88
2021/03/16 07:16:13;;;;;;;24.98;3.00;;;5.70;99.90;;;;;;5033877;28;20037;-89
2021/03/16 07:18:46;;;;;;;20.05;2.33;;;5.70;99.90;;;;;;5030471;28;20045;-88
2021/03/16 07:21:28;;;;;;;27.35;3.30;;;5.70;99.90;;;;;;5048660;28;20030;-89
2021/03/16 07:23:59;;;;;;;30.10;3.85;;;5.60;99.90;;;;;;5032066;28;20045;-88
2021/03/16 07:26:26;;;;;;;24.35;2.42;;;5.60;99.90;;;;;;5033118;28;20044;-88
2021/03/16 07:28:52;;;;;;;33.13;3.72;;;5.60;99.90;;;;;;5038773;28;20058;-88
2021/03/16 07:31:18;;;;;;;16.33;2.42;;;5.70;99.90;;;;;;5037841;28;20032;-88
2021/03/16 07:33:44;;;;;;;21.83;2.55;;;5.80;99.90;;;;;;5042513;28;20080;-88
2021/03/16 07:36:11;;;;;;;11.85;1.67;;;5.70;99.90;;;;;;5053690;28;20490;-89
2021/03/16 07:38:39;;;;;;;18.42;2.08;;;5.70;99.90;;;;;;5048721;28;20116;-88
2021/03/16 07:41:06;;;;;;;14.88;2.47;;;5.70;99.90;;;;;;5034962;28;20040;-88
2021/03/16 07:43:42;;;;;;;10.85;1.70;;;5.70;99.90;;;;;;5058164;28;20040;-90
2021/03/16 07:46:11;;;;;;;13.90;1.77;;;5.70;99.90;;;;;;5051842;28;20478;-88
2021/03/16 07:48:41;;;;;;;11.93;2.03;;;5.80;99.90;;;;;;5040671;28;20524;-88
2021/03/16 07:51:17;;;;;;;;;;;5.80;99.90;;;;;;5028306;28;20409;-90
2021/03/16 07:54:04;;;;;;;18.08;1.67;;;5.90;99.90;;;;;;5034778;28;19921;-89
2021/03/16 07:56:32;;;;;;;21.98;1.98;;;6.00;99.90;;;;;;5015742;28;20049;-88
2021/03/16 07:58:59;;;;;;;10.98;1.70;;;6.00;99.90;;;;;;5037406;28;20065;-89
2021/03/16 08:01:25;;;;;;;13.15;1.55;;;6.10;99.90;;;;;;5029009;28;20046;-91
2021/03/16 08:04:02;;;;;;;20.48;2.00;;;6.10;99.90;;;;;;5046920;28;20440;-89
2021/03/16 08:06:29;;;;;;;19.35;2.00;;;6.20;99.90;;;;;;5036371;28;20045;-89
2021/03/16 08:08:55;;;;;;;16.40;1.75;;;6.10;99.90;;;;;;5042888;28;20044;-91
2021/03/16 08:11:21;;;;;;;22.70;2.35;;;6.30;99.90;;;;;;5016975;28;20481;-90
2021/03/16 08:13:58;;;;;;;13.57;2.13;;;6.40;99.90;;;;;;5029892;28;20041;-90
2021/03/16 08:16:44;;;;;;;13.85;2.53;;;6.50;99.90;;;;;;5028513;28;20045;-89
2021/03/16 08:19:39;;;;;;;21.48;2.60;;;6.50;99.90;;;;;;5030296;28;20413;-90
2021/03/16 08:22:09;;;;;;;32.05;3.15;;;6.50;99.90;;;;;;5011774;28;20122;-88
2021/03/16 08:24:40;;;;;;;18.00;2.25;;;6.50;99.90;;;;;;5028734;28;20580;-87
2021/03/16 08:27:14;;;;;;;14.80;2.25;;;6.50;99.90;;;;;;5038399;28;20041;-89
2021/03/16 08:29:49;;;;;;;20.23;2.13;;;6.50;99.90;;;;;;5032378;28;20033;-88
2021/03/16 08:32:16;;;;;;;14.07;1.85;;;6.60;99.90;;;;;;5029921;28;20117;-89
2021/03/16 08:34:43;;;;;;;22.35;2.85;;;6.50;99.90;;;;;;5031590;28;20048;-89
2021/03/16 08:37:33;;;;;;;22.02;3.53;;;6.50;99.90;;;;;;5041553;28;20040;-88
2021/03/16 08:40:00;;;;;;;;;;;6.60;99.90;;;;;;5046547;28;20125;-88
2021/03/16 08:42:28;;;;;;;14.30;2.67;;;6.60;99.90;;;;;;5034907;28;19929;-88
2021/03/16 08:44:57;;;;;;;20.40;2.55;;;6.60;99.90;;;;;;5017849;28;20128;-90
2021/03/16 08:47:25;;;;;;;18.90;2.92;;;6.70;99.90;;;;;;5025001;28;20482;-88
2021/03/16 08:49:53;;;;;;;25.70;2.95;;;6.90;99.90;;;;;;5012083;28;20037;-88
2021/03/16 08:52:21;;;;;;;16.52;2.55;;;7.00;99.90;;;;;;5029499;28;20045;-90
2021/03/16 08:54:48;;;;;;;20.88;2.50;;;7.00;99.90;;;;;;5040389;28;20124;-88
2021/03/16 08:57:31;;;;;;;28.95;2.45;;;7.10;99.90;;;;;;5022644;28;20054;-88
2021/03/16 08:59:59;;;;;;;17.23;1.73;;;7.00;99.90;;;;;;5019980;28;20034;-87
2021/03/16 09:02:28;;;;;;;21.55;2.28;;;6.70;99.90;;;;;;5028193;28;20041;-89
2021/03/16 09:04:55;;;;;;;29.42;2.17;;;6.10;99.90;;;;;;5044923;28;20049;-89
2021/03/16 09:07:26;;;;;;;13.43;1.98;;;5.90;99.90;;;;;;5032653;28;20057;-90
2021/03/16 09:10:07;;;;;;;10.60;1.80;;;5.70;99.90;;;;;;5028852;28;20045;-89
2021/03/16 09:12:36;;;;;;;6.57;0.93;;;5.50;99.90;;;;;;5028534;28;20064;-88
2021/03/16 09:15:25;;;;;;;20.10;2.90;;;5.40;99.90;;;;;;5041930;28;20553;-90
2021/03/16 09:17:53;;;;;;;21.10;2.15;;;5.40;99.90;;;;;;5038723;28;20194;-88
2021/03/16 09:20:33;;;;;;;10.85;1.65;;;5.50;99.90;;;;;;5015024;28;20046;-89
2021/03/16 09:23:09;;;;;;;16.00;3.05;;;5.70;99.90;;;;;;5049396;28;20047;-88
2021/03/16 09:25:37;;;;;;;22.88;2.30;;;5.80;99.90;;;;;;5046364;28;20037;-88
2021/03/16 09:28:07;;;;;;;14.85;2.10;;;5.90;99.90;;;;;;5031019;28;20044;-88
2021/03/16 09:30:44;;;;;;;26.80;2.88;;;5.90;99.90;;;;;;5027006;28;20046;-87
2021/03/16 09:33:12;;;;;;;14.57;2.05;;;6.00;99.90;;;;;;5026772;28;20038;-87
2021/03/16 09:35:38;;;;;;;27.83;2.95;;;6.10;99.90;;;;;;5043582;28;20062;-87
2021/03/16 09:38:06;;;;;;;23.13;2.30;;;5.90;99.90;;;;;;5043980;28;20037;-87
2021/03/16 09:40:33;;;;;;;31.88;3.03;;;5.80;99.90;;;;;;5028872;28;20505;-87
2021/03/16 09:43:00;;;;;;;19.60;2.72;;;5.80;99.90;;;;;;5033003;28;20052;-87
2021/03/16 09:45:32;;;;;;;21.40;2.13;;;5.90;99.90;;;;;;5015254;28;20132;-87
2021/03/16 09:47:59;;;;;;;21.33;2.15;;;6.10;99.90;;;;;;5043863;28;20061;-88
2021/03/16 09:50:32;;;;;;;20.48;2.22;;;6.20;99.90;;;;;;5028867;28;20401;-87
2021/03/16 09:53:06;;;;;;;11.13;1.50;;;6.30;99.90;;;;;;5031004;28;20041;-87
2021/03/16 09:55:33;;;;;;;28.50;3.30;;;6.50;99.90;;;;;;5043228;28;20079;-88
2021/03/16 09:58:00;;;;;;;33.03;3.10;;;6.50;99.90;;;;;;5044866;28;20045;-88
2021/03/16 10:00:27;;;;;;;18.83;2.90;;;6.60;99.90;;;;;;5029500;28;20064;-88
2021/03/16 10:03:09;;;;;;;18.17;2.63;;;6.50;99.90;;;;;;5039028;28;20119;-88
2021/03/16 10:05:35;;;;;;;20.73;2.63;;;6.50;99.90;;;;;;5042627;28;20043;-89
2021/03/16 10:08:01;;;;;;;20.20;2.53;;;6.50;99.90;;;;;;5045111;28;20102;-88
2021/03/16 10:10:31;;;;;;;18.75;2.92;;;6.60;99.90;;;;;;5014219;28;20073;-90
2021/03/16 10:13:08;;;;;;;18.05;2.58;;;6.70;99.90;;;;;;5027843;28;20049;-87
2021/03/16 10:15:42;;;;;;;25.60;2.72;;;6.70;99.90;;;;;;5010482;28;20045;-89
2021/03/16 10:18:13;;;;;;;24.17;3.63;;;6.80;99.90;;;;;;5048924;28;20053;-88
2021/03/16 10:20:45;;;;;;;28.70;2.50;;;7.00;99.90;;;;;;5044280;28;20451;-89
2021/03/16 10:23:22;;;;;;;7.30;1.27;;;7.00;99.90;;;;;;5035100;28;20499;-88
2021/03/16 10:25:56;;;;;;;22.05;2.33;;;6.80;99.90;;;;;;5041042;28;20144;-90
2021/03/16 10:28:36;;;;;;;17.65;2.05;;;6.50;99.90;;;;;;5039539;28;20527;-90
2021/03/16 10:31:21;;;;;;;8.68;1.73;;;6.30;99.90;;;;;;5052406;28;20132;-89
2021/03/16 10:33:50;;;;;;;16.92;2.20;;;6.20;99.90;;;;;;5063055;28;20037;-90
2021/03/16 10:36:16;;;;;;;18.10;1.98;;;6.40;99.90;;;;;;5042127;28;20048;-90
2021/03/16 10:38:43;;;;;;;31.35;2.53;;;6.50;99.90;;;;;;5043895;28;20515;-89
2021/03/16 10:41:09;;;;;;;16.73;1.95;;;6.70;99.90;;;;;;5025720;28;20133;-89
2021/03/16 10:43:35;;;;;;;14.18;1.77;;;6.80;99.90;;;;;;5022076;28;20033;-89
2021/03/16 10:46:00;;;;;;;20.70;2.90;;;7.00;99.90;;;;;;5046566;28;20493;-89
2021/03/16 10:48:26;;;;;;;11.07;1.80;;;7.00;99.90;;;;;;5032454;28;20037;-89
2021/03/16 10:50:52;;;;;;;25.83;2.92;;;7.00;99.90;;;;;;5031836;28;20047;-89
2021/03/16 10:53:19;;;;;;;10.68;1.30;;;7.00;99.90;;;;;;5049260;28;20400;-89
2021/03/16 10:55:45;;;;;;;24.35;1.88;;;6.80;99.90;;;;;;5055845;28;20400;-89
2021/03/16 10:58:11;;;;;;;6.30;1.45;;;6.70;99.90;;;;;;5021874;28;20120;-89
2021/03/16 11:00:37;;;;;;;14.27;1.92;;;6.60;99.90;;;;;;5061663;28;20457;-89
2021/03/16 11:03:04;;;;;;;15.18;2.25;;;6.50;99.90;;;;;;5024184;28;20038;-90
2021/03/16 11:05:30;;;;;;;16.77;1.60;;;6.50;99.90;;;;;;5030478;28;20046;-92
2021/03/16 11:07:56;;;;;;;13.88;1.25;;;6.60;99.90;;;;;;5045507;28;20126;-89
2021/03/16 11:10:22;;;;;;;10.32;1.42;;;6.60;99.90;;;;;;5038800;28;20073;-89
2021/03/16 11:12:48;;;;;;;5.63;1.17;;;6.70;99.90;;;;;;5029745;28;20413;-89
2021/03/16 11:15:14;;;;;;;12.65;1.48;;;6.60;99.90;;;;;;5044920;28;20041;-89
2021/03/16 11:17:44;;;;;;;6.38;1.60;;;6.50;99.90;;;;;;5018728;28;20492;-90
2021/03/16 11:20:10;;;;;;;8.82;1.20;;;6.40;99.90;;;;;;5031117;28;20041;-90
2021/03/16 11:22:36;;;;;;;24.20;2.42;;;6.40;99.90;;;;;;5048459;28;20042;-91
2021/03/16 11:25:04;;;;;;;24.42;2.72;;;6.50;99.90;;;;;;5059257;28;20037;-89
2021/03/16 11:27:29;;;;;;;13.25;1.55;;;6.70;99.90;;;;;;5048005;28;20477;-90
2021/03/16 11:29:55;;;;;;;9.50;1.27;;;6.90;99.90;;;;;;5050674;28;20048;-90
2021/03/16 11:32:21;;;;;;;17.98;1.80;;;7.00;99.90;;;;;;5031502;28;20112;-89
2021/03/16 11:34:47;;;;;;;12.18;1.38;;;7.00;99.90;;;;;;5049186;28;20041;-89
2021/03/16 11:37:13;;;;;;;12.63;3.63;;;7.00;99.90;;;;;;5041772;28;20041;-89
2021/03/16 11:39:39;;;;;;;17.80;1.73;;;7.20;99.90;;;;;;5016984;28;20042;-90
2021/03/16 11:42:05;;;;;;;18.33;2.17;;;7.20;99.90;;;;;;5047527;28;20044;-89
2021/03/16 11:44:30;;;;;;;16.98;2.13;;;7.20;99.90;;;;;;5048012;28;20892;-90
2021/03/16 11:46:56;;;;;;;22.10;2.75;;;7.10;99.90;;;;;;5030984;28;20109;-90
2021/03/16 11:49:22;;;;;;;25.33;2.47;;;7.20;99.90;;;;;;5027510;28;20061;-90
2021/03/16 11:51:48;;;;;;;21.45;2.63;;;7.20;99.90;;;;;;5062091;28;20055;-89
2021/03/16 11:54:14;;;;;;;17.50;2.20;;;7.30;99.90;;;;;;5031460;28;20033;-88
2021/03/16 11:56:40;;;;;;;31.08;3.10;;;7.50;99.90;;;;;;5047496;28;20037;-91
2021/03/16 11:59:06;;;;;;;18.58;2.45;;;7.50;99.90;;;;;;5031786;28;20061;-90
2021/03/16 12:01:32;;;;;;;13.88;2.28;;;7.60;99.90;;;;;;5029921;28;20416;-91
2021/03/16 12:03:58;;;;;;;18.90;3.25;;;7.60;99.90;;;;;;5033140;28;20053;-91
2021/03/16 12:06:24;;;;;;;15.23;1.65;;;7.60;99.90;;;;;;5030449;28;20068;-92
2021/03/16 12:08:50;;;;;;;20.77;2.45;;;7.60;99.90;;;;;;5036179;28;20510;-91
2021/03/16 12:11:16;;;;;;;30.15;3.33;;;7.60;99.90;;;;;;5030468;28;20045;-90
2021/03/16 12:13:42;;;;;;;15.00;2.45;;;7.60;99.90;;;;;;5046389;28;20041;-91
2021/03/16 12:16:08;;;;;;;24.70;3.03;;;7.60;99.90;;;;;;5026903;28;20764;-91
2021/03/16 12:18:34;;;;;;;23.33;2.42;;;7.50;99.90;;;;;;5042072;28;20129;-89
2021/03/16 12:20:59;;;;;;;23.67;2.85;;;7.40;99.90;;;;;;5027085;28;20558;-91
2021/03/16 12:23:25;;;;;;;32.13;3.88;;;7.30;99.90;;;;;;5036808;28;20040;-91
2021/03/16 12:25:54;;;;;;;28.55;4.75;;;7.40;99.90;;;;;;5030859;28;20041;-92
2021/03/16 12:28:21;;;;;;;25.88;3.00;;;7.40;99.90;;;;;;5045120;28;20075;-91
2021/03/16 12:30:58;;;;;;;18.35;2.60;;;7.50;99.90;;;;;;5038775;28;20099;-91
2021/03/16 12:33:24;;;;;;;18.80;4.70;;;7.60;99.90;;;;;;5005422;28;20053;-92
2021/03/16 12:35:52;;;;;;;26.98;2.70;;;7.50;99.90;;;;;;5049454;28;20041;-91
2021/03/16 12:38:18;;;;;;;18.55;2.58;;;7.40;99.90;;;;;;5044418;28;20049;-92
2021/03/16 12:40:44;;;;;;;23.35;2.63;;;7.30;99.90;;;;;;5040538;28;20068;-91
2021/03/16 12:43:10;;;;;;;29.45;2.92;;;7.30;99.90;;;;;;5035122;28;20064;-91
2021/03/16 12:45:37;;;;;;;19.65;2.35;;;7.30;99.90;;;;;;5032557;28;20069;-91
2021/03/16 12:48:03;;;;;;;17.02;3.80;;;7.30;99.90;;;;;;5048864;28;20062;-90
2021/03/16 12:50:29;;;;;;;19.20;1.98;;;7.30;99.90;;;;;;5043781;28;20048;-90
2021/03/16 12:52:55;;;;;;;13.20;3.10;;;7.20;99.90;;;;;;5049371;28;20049;-91
2021/03/16 12:55:21;;;;;;;14.32;1.70;;;7.20;99.90;;;;;;5044045;28;20267;-91